Time;durP1;ratioP1;P1;durP2;ratioP2;P2;SDS_P1;SDS_P2;PMS_P1;PMS_P2;Temp;Humidity;BMP_temperature;BMP_pressure;BME280_temperature;BME280_humidity;BME280_pressure;Samples;Min_cycle;Max_cycle;Signal;HPM_P1;HPM_P2
2022/05/15 00:02:39;;;;;;;3.33;2.40;;;11.60;99.90;;;;;;5071883;28;20391;-68
2022/05/15 00:05:05;;;;;;;5.20;2.63;;;11.60;99.90;;;;;;5071199;28;20451;-68
2022/05/15 00:07:30;;;;;;;4.03;2.60;;;11.50;99.90;;;;;;5075110;28;20408;-68
2022/05/15 00:09:56;;;;;;;9.13;2.50;;;11.50;99.90;;;;;;5075602;28;20259;-68
2022/05/15 00:12:22;;;;;;;3.97;2.00;;;11.40;99.90;;;;;;5075229;28;20170;-68
2022/05/15 00:14:48;;;;;;;4.53;2.03;;;11.40;99.90;;;;;;5075332;28;20234;-68
2022/05/15 00:17:14;;;;;;;3.00;2.30;;;11.30;99.90;;;;;;5075157;28;20435;-70
2022/05/15 00:19:40;;;;;;;2.70;2.40;;;11.30;99.90;;;;;;5074860;28;20409;-68
2022/05/15 00:22:08;;;;;;;2.50;2.23;;;11.30;99.90;;;;;;5074986;28;20404;-68
2022/05/15 00:24:35;;;;;;;3.07;2.13;;;11.30;99.90;;;;;;5074928;28;20455;-68
2022/05/15 00:27:01;;;;;;;9.90;2.63;;;11.20;99.90;;;;;;5075301;28;20448;-68
2022/05/15 00:29:26;;;;;;;2.43;2.23;;;11.20;99.90;;;;;;5075001;28;20400;-68
2022/05/15 00:31:52;;;;;;;3.67;2.80;;;11.20;99.90;;;;;;5074712;28;20597;-68
2022/05/15 00:34:17;;;;;;;3.13;2.83;;;11.20;99.90;;;;;;5074645;28;20192;-68
2022/05/15 00:36:42;;;;;;;2.70;2.50;;;11.20;99.90;;;;;;5074533;28;20205;-68
2022/05/15 00:39:09;;;;;;;3.40;2.10;;;11.10;99.90;;;;;;5074797;28;20248;-68
2022/05/15 00:41:34;;;;;;;2.97;2.60;;;11.10;99.90;;;;;;5075108;28;20345;-68
2022/05/15 00:44:01;;;;;;;4.53;2.03;;;11.20;99.90;;;;;;5075321;28;20967;-68
2022/05/15 00:46:28;;;;;;;3.57;2.73;;;11.10;99.90;;;;;;5074516;28;20478;-68
2022/05/15 00:48:56;;;;;;;3.00;2.20;;;11.10;99.90;;;;;;5074298;28;20408;-68
2022/05/15 00:51:45;;;;;;;3.10;2.40;;;11.00;99.90;;;;;;5074413;28;20488;-68
2022/05/15 00:54:34;;;;;;;2.43;2.23;;;11.00;99.90;;;;;;5074188;28;20389;-68
2022/05/15 00:57:07;;;;;;;3.87;3.00;;;11.00;99.90;;;;;;5073990;28;20524;-68
2022/05/15 00:59:40;;;;;;;4.27;2.23;;;11.00;99.90;;;;;;5074130;28;20446;-68
2022/05/15 01:02:08;;;;;;;2.63;2.30;;;10.90;99.90;;;;;;5074335;28;20541;-68
2022/05/15 01:04:34;;;;;;;7.13;3.40;;;10.90;99.90;;;;;;5074079;28;20798;-68
2022/05/15 01:07:02;;;;;;;2.50;2.30;;;10.90;99.90;;;;;;5073805;28;20428;-69
2022/05/15 01:09:28;;;;;;;2.33;2.13;;;10.90;99.90;;;;;;5073895;28;20217;-68
2022/05/15 01:11:56;;;;;;;4.00;2.70;;;10.90;99.90;;;;;;5055019;28;20408;-68
2022/05/15 01:14:22;;;;;;;3.63;2.90;;;10.80;99.90;;;;;;5073791;28;20409;-68
2022/05/15 01:16:48;;;;;;;3.43;3.10;;;10.80;99.90;;;;;;5073614;28;20455;-68
2022/05/15 01:19:14;;;;;;;2.37;1.80;;;10.80;99.90;;;;;;5073055;28;20444;-68
2022/05/15 01:21:55;;;;;;;4.30;2.37;;;10.80;99.90;;;;;;5073820;28;20175;-68
2022/05/15 01:24:20;;;;;;;2.70;2.13;;;10.70;99.90;;;;;;5073531;28;20839;-67
2022/05/15 01:26:46;;;;;;;3.23;2.33;;;10.80;99.90;;;;;;5073398;28;20429;-67
2022/05/15 01:29:12;;;;;;;7.13;2.33;;;10.80;99.90;;;;;;5073433;28;20225;-68
2022/05/15 01:31:37;;;;;;;5.00;3.53;;;10.70;99.90;;;;;;5073245;28;20422;-68
2022/05/15 01:34:06;;;;;;;3.10;2.10;;;10.60;99.90;;;;;;5073630;28;20413;-68
2022/05/15 01:36:32;;;;;;;4.87;2.20;;;10.60;99.90;;;;;;5073365;28;20480;-68
2022/05/15 01:38:57;;;;;;;6.37;2.33;;;10.60;99.90;;;;;;5073816;28;20412;-68
2022/05/15 01:41:25;;;;;;;2.33;2.13;;;10.50;99.90;;;;;;5073491;28;20436;-68
2022/05/15 01:43:54;;;;;;;2.57;1.97;;;10.50;99.90;;;;;;5073146;28;20204;-68
2022/05/15 01:46:22;;;;;;;3.23;2.03;;;10.60;99.90;;;;;;5073180;28;20973;-68
2022/05/15 01:48:50;;;;;;;2.80;1.80;;;10.60;99.90;;;;;;5073709;28;20454;-68
2022/05/15 01:51:15;;;;;;;2.60;1.97;;;10.50;99.90;;;;;;5073260;28;20462;-68
2022/05/15 01:53:41;;;;;;;5.60;2.00;;;10.60;99.90;;;;;;5073144;28;20406;-68
2022/05/15 01:56:07;;;;;;;1.43;1.33;;;10.70;99.90;;;;;;5073374;28;20214;-68
2022/05/15 01:58:33;;;;;;;1.77;1.57;;;10.60;99.90;;;;;;5072951;28;20297;-68
2022/05/15 02:00:58;;;;;;;1.33;1.23;;;10.60;99.90;;;;;;5072881;28;20407;-68
2022/05/15 02:03:24;;;;;;;2.30;1.10;;;10.70;99.90;;;;;;5055102;28;20400;-68
2022/05/15 02:05:50;;;;;;;3.63;1.67;;;10.70;99.90;;;;;;5072758;28;20198;-68
2022/05/15 02:08:17;;;;;;;3.83;1.87;;;10.70;99.90;;;;;;5072963;28;20162;-68
2022/05/15 02:10:44;;;;;;;4.60;1.43;;;10.70;99.90;;;;;;5072854;28;20466;-68
2022/05/15 02:13:09;;;;;;;5.13;1.40;;;10.70;99.90;;;;;;5072806;28;20408;-68
2022/05/15 02:15:35;;;;;;;2.70;2.17;;;10.70;99.90;;;;;;5072620;28;20428;-68
2022/05/15 02:18:00;;;;;;;1.77;1.53;;;10.80;99.90;;;;;;5072775;28;20167;-68
2022/05/15 02:20:26;;;;;;;2.07;1.80;;;10.70;99.90;;;;;;5072837;28;20257;-69
2022/05/15 02:22:54;;;;;;;1.77;1.20;;;10.70;99.90;;;;;;5072857;28;20166;-69
2022/05/15 02:25:20;;;;;;;1.63;1.53;;;10.60;99.90;;;;;;5072873;28;20266;-69
2022/05/15 02:27:46;;;;;;;2.10;1.50;;;10.50;99.90;;;;;;5072578;28;20413;-69
2022/05/15 02:30:13;;;;;;;2.20;1.83;;;10.40;99.90;;;;;;5071455;28;20194;-68
2022/05/15 02:32:38;;;;;;;1.70;1.43;;;10.40;99.90;;;;;;5073279;28;20836;-68
2022/05/15 02:35:04;;;;;;;1.87;1.77;;;10.30;99.90;;;;;;5072037;28;20492;-68
2022/05/15 02:37:30;;;;;;;1.97;1.83;;;10.30;99.90;;;;;;5072098;28;20194;-68
2022/05/15 02:39:55;;;;;;;9.40;1.73;;;10.30;99.90;;;;;;5072503;28;20759;-68
2022/05/15 02:42:21;;;;;;;3.93;1.47;;;10.30;99.90;;;;;;5071848;28;20223;-68
2022/05/15 02:44:46;;;;;;;2.23;1.70;;;10.20;99.90;;;;;;5071823;28;20205;-68
2022/05/15 02:47:12;;;;;;;2.70;1.90;;;10.20;99.90;;;;;;5072010;28;20281;-69
2022/05/15 02:52:21;;;;;;;2.57;2.37;;;10.10;99.90;;;;;;5071853;28;20177;-68
2022/05/15 02:54:47;;;;;;;1.97;1.80;;;10.10;99.90;;;;;;5071653;28;20831;-68
2022/05/15 02:57:13;;;;;;;3.13;2.53;;;10.30;99.90;;;;;;5071937;28;20209;-69
2022/05/15 02:59:38;;;;;;;2.70;2.10;;;10.40;99.90;;;;;;5071698;28;20198;-69
2022/05/15 03:02:04;;;;;;;4.20;3.00;;;10.30;99.90;;;;;;5071529;28;20406;-68
2022/05/15 03:04:31;;;;;;;5.53;2.00;;;10.20;99.90;;;;;;5071556;28;20304;-68
2022/05/15 03:06:57;;;;;;;6.77;2.57;;;10.20;99.90;;;;;;5071652;28;20840;-69
2022/05/15 03:09:22;;;;;;;2.93;1.87;;;10.20;99.90;;;;;;5071686;28;20492;-69
2022/05/15 03:11:47;;;;;;;2.47;1.87;;;10.30;99.90;;;;;;5071271;28;20222;-69
2022/05/15 03:14:13;;;;;;;4.73;1.90;;;10.20;99.90;;;;;;5053495;28;20185;-69
2022/05/15 03:16:39;;;;;;;1.63;1.20;;;10.20;99.90;;;;;;5071843;28;20204;-68
2022/05/15 03:19:04;;;;;;;2.87;1.73;;;10.20;99.90;;;;;;5071482;28;20577;-68
2022/05/15 03:21:30;;;;;;;1.73;1.60;;;10.10;99.90;;;;;;5071372;28;20172;-68
2022/05/15 03:24:01;;;;;;;2.53;2.20;;;10.10;99.90;;;;;;5071339;28;20198;-68
2022/05/15 03:26:28;;;;;;;2.23;1.80;;;10.10;99.90;;;;;;5071067;28;20201;-68
2022/05/15 03:28:54;;;;;;;3.80;2.03;;;10.10;99.90;;;;;;5071399;28;20412;-68
2022/05/15 03:31:20;;;;;;;2.63;1.60;;;10.20;99.90;;;;;;5071340;28;20472;-68
2022/05/15 03:33:46;;;;;;;1.57;1.47;;;10.10;99.90;;;;;;5071310;28;20446;-68
2022/05/15 03:36:12;;;;;;;5.07;1.90;;;10.10;99.90;;;;;;5071356;28;20247;-68
2022/05/15 03:38:40;;;;;;;2.90;1.97;;;10.10;99.90;;;;;;5071358;28;20412;-68
2022/05/15 03:41:06;;;;;;;2.40;2.20;;;10.10;99.90;;;;;;5072354;28;20454;-67
2022/05/15 03:43:31;;;;;;;2.60;2.40;;;10.20;99.90;;;;;;5075558;28;20408;-68
2022/05/15 03:45:57;;;;;;;4.43;3.23;;;10.30;99.90;;;;;;5075119;28;20451;-68
2022/05/15 03:48:22;;;;;;;2.17;1.90;;;10.40;99.90;;;;;;5075453;28;20190;-68
2022/05/15 03:50:48;;;;;;;2.60;2.40;;;10.40;99.90;;;;;;5075277;28;20416;-68
2022/05/15 03:53:13;;;;;;;2.23;1.80;;;10.40;99.90;;;;;;5075294;28;20176;-67
2022/05/15 03:55:39;;;;;;;2.47;1.57;;;10.40;99.90;;;;;;5074933;28;20690;-69
2022/05/15 03:58:04;;;;;;;3.50;2.23;;;10.40;99.90;;;;;;5075273;28;20257;-69
2022/05/15 04:00:30;;;;;;;1.90;1.70;;;10.40;99.90;;;;;;5075206;28;20163;-69
2022/05/15 04:02:56;;;;;;;2.20;1.70;;;10.50;99.90;;;;;;5075292;28;20202;-68
2022/05/15 04:05:21;;;;;;;1.90;1.70;;;10.50;99.90;;;;;;5074795;28;20202;-68
2022/05/15 04:07:50;;;;;;;3.27;2.13;;;10.50;99.90;;;;;;5075100;28;20217;-69
2022/05/15 04:10:18;;;;;;;3.03;1.70;;;10.50;99.90;;;;;;5074849;28;20206;-69
2022/05/15 04:12:44;;;;;;;3.13;1.30;;;10.50;99.90;;;;;;5074870;28;20618;-69
2022/05/15 04:15:11;;;;;;;3.00;1.83;;;10.50;99.90;;;;;;5074874;28;20430;-69
2022/05/15 04:17:44;;;;;;;2.10;1.77;;;10.60;99.90;;;;;;5074815;28;20261;-69
2022/05/15 04:20:11;;;;;;;1.93;1.80;;;10.60;99.90;;;;;;5074976;28;20812;-70
2022/05/15 04:22:36;;;;;;;3.60;1.70;;;10.70;99.90;;;;;;5074649;28;20401;-70
2022/05/15 04:25:02;;;;;;;6.10;2.10;;;10.70;99.90;;;;;;5074607;28;20526;-69
2022/05/15 04:27:28;;;;;;;2.70;1.73;;;10.80;99.90;;;;;;5074990;28;20170;-69
2022/05/15 04:29:53;;;;;;;2.73;2.23;;;10.90;99.90;;;;;;5074650;28;20926;-69
2022/05/15 04:32:19;;;;;;;2.43;2.13;;;11.00;99.90;;;;;;5074976;28;20166;-69
2022/05/15 04:34:44;;;;;;;4.43;1.87;;;11.10;99.90;;;;;;5074549;28;20174;-69
2022/05/15 04:37:10;;;;;;;2.20;1.67;;;11.10;99.90;;;;;;5074770;28;20202;-69
2022/05/15 04:39:35;;;;;;;2.60;1.73;;;11.20;99.90;;;;;;5074816;28;20173;-69
2022/05/15 04:42:01;;;;;;;2.20;1.83;;;11.30;99.90;;;;;;5075163;28;20166;-71
2022/05/15 04:44:27;;;;;;;2.07;1.47;;;11.40;99.90;;;;;;5074689;28;20448;-69
2022/05/15 04:46:53;;;;;;;0.97;0.90;;;11.40;99.90;;;;;;5074390;28;20250;-70
2022/05/15 04:49:18;;;;;;;1.83;1.27;;;11.50;99.90;;;;;;5074552;28;20166;-69
2022/05/15 04:51:44;;;;;;;3.03;1.57;;;11.60;99.90;;;;;;5074029;28;20260;-70
2022/05/15 04:54:09;;;;;;;4.37;1.60;;;11.70;99.90;;;;;;5073410;28;20232;-69
2022/05/15 04:56:35;;;;;;;2.93;1.40;;;11.80;99.90;;;;;;5074146;28;20215;-68
2022/05/15 04:59:01;;;;;;;1.43;1.30;;;11.90;99.90;;;;;;5074187;28;20208;-68
2022/05/15 05:01:27;;;;;;;3.00;1.37;;;12.10;99.90;;;;;;5074013;28;20194;-68
2022/05/15 05:03:57;;;;;;;1.33;1.23;;;12.70;99.90;;;;;;5074166;28;20783;-68
2022/05/15 05:06:23;;;;;;;1.87;1.67;;;13.00;99.90;;;;;;5073841;28;20478;-69
2022/05/15 05:08:49;;;;;;;2.03;1.60;;;13.70;99.90;;;;;;5074024;28;20407;-68
2022/05/15 05:11:15;;;;;;;5.93;1.77;;;14.10;99.90;;;;;;5073907;28;20755;-68
2022/05/15 05:13:41;;;;;;;2.50;1.40;;;15.20;99.90;;;;;;5073884;28;20234;-68
2022/05/15 05:16:06;;;;;;;2.30;1.50;;;15.50;99.90;;;;;;5073694;28;20528;-69
2022/05/15 05:18:32;;;;;;;2.27;1.17;;;15.80;99.90;;;;;;5073874;28;20411;-69
2022/05/15 05:20:58;;;;;;;2.93;1.13;;;15.70;99.90;;;;;;5073764;28;20173;-69
2022/05/15 05:23:23;;;;;;;2.17;0.90;;;16.90;99.90;;;;;;5073662;28;20177;-68
2022/05/15 05:25:49;;;;;;;1.90;0.93;;;15.90;99.90;;;;;;5073414;28;20549;-69
2022/05/15 05:28:15;;;;;;;1.60;1.33;;;16.30;99.90;;;;;;5073777;28;20167;-69
2022/05/15 05:30:41;;;;;;;2.97;1.00;;;16.10;99.90;;;;;;5073601;28;20580;-69
2022/05/15 05:33:07;;;;;;;2.77;0.90;;;15.60;99.90;;;;;;5073281;28;20924;-68
2022/05/15 05:35:34;;;;;;;1.80;1.00;;;15.90;99.90;;;;;;5073185;28;20470;-68
2022/05/15 05:38:00;;;;;;;0.90;0.80;;;16.40;99.90;;;;;;5073317;28;20165;-68
2022/05/15 05:40:25;;;;;;;2.30;1.47;;;17.30;99.90;;;;;;5073355;28;20409;-68
2022/05/15 05:42:51;;;;;;;1.70;1.60;;;18.40;99.90;;;;;;5073187;28;20195;-67
2022/05/15 05:45:17;;;;;;;2.80;1.23;;;18.00;99.90;;;;;;5072927;28;20215;-68
2022/05/15 05:47:46;;;;;;;4.20;1.33;;;17.30;99.90;;;;;;5073187;28;20172;-68
2022/05/15 05:50:12;;;;;;;3.03;1.40;;;16.40;99.90;;;;;;5073015;28;20545;-69
2022/05/15 05:52:39;;;;;;;2.10;1.43;;;16.50;99.90;;;;;;5073067;28;20427;-68
2022/05/15 05:55:05;;;;;;;2.40;1.30;;;17.00;99.90;;;;;;5072777;28;20907;-68
2022/05/15 05:57:31;;;;;;;1.77;1.30;;;17.70;99.90;;;;;;5073201;28;20413;-68
2022/05/15 05:59:56;;;;;;;1.10;0.90;;;18.30;99.90;;;;;;5073045;28;20807;-68
2022/05/15 06:02:22;;;;;;;1.67;1.00;;;17.70;99.90;;;;;;5072915;28;20206;-68
2022/05/15 06:04:50;;;;;;;1.87;0.90;;;17.60;99.90;;;;;;5072682;28;20197;-69
2022/05/15 06:07:19;;;;;;;2.10;1.20;;;18.80;99.90;;;;;;5072965;28;20177;-67
2022/05/15 06:09:46;;;;;;;2.40;1.27;;;18.40;99.90;;;;;;5073168;28;20547;-67
2022/05/15 06:12:15;;;;;;;1.47;0.80;;;18.30;99.90;;;;;;5072751;28;20809;-68
2022/05/15 06:14:40;;;;;;;1.73;1.30;;;19.50;99.90;;;;;;5073054;28;20405;-67
2022/05/15 06:17:06;;;;;;;2.20;1.00;;;20.60;99.90;;;;;;5072722;28;20930;-67
2022/05/15 06:19:32;;;;;;;1.13;0.90;;;20.50;99.90;;;;;;5072996;28;20172;-67
2022/05/15 06:21:58;;;;;;;2.13;1.10;;;19.00;99.90;;;;;;5072494;28;20430;-67
2022/05/15 06:24:25;;;;;;;1.60;1.00;;;18.60;99.90;;;;;;5072920;28;20207;-66
2022/05/15 06:26:52;;;;;;;1.63;0.90;;;19.10;99.90;;;;;;5072519;28;20198;-69
2022/05/15 06:29:17;;;;;;;1.40;1.07;;;19.40;99.90;;;;;;5072464;28;20553;-69
2022/05/15 06:31:43;;;;;;;2.20;0.87;;;20.20;99.90;;;;;;5072119;28;20543;-69
2022/05/15 06:34:09;;;;;;;2.00;1.43;;;21.30;98.90;;;;;;5072384;28;20175;-67
2022/05/15 06:36:34;;;;;;;1.27;0.90;;;20.90;98.70;;;;;;5072246;28;20561;-68
2022/05/15 06:39:00;;;;;;;1.50;1.40;;;21.20;98.50;;;;;;5072420;28;20173;-68
2022/05/15 06:41:25;;;;;;;2.60;0.83;;;21.60;97.10;;;;;;5072109;28;20162;-68
2022/05/15 06:43:51;;;;;;;1.53;0.90;;;21.00;97.60;;;;;;5072386;28;20170;-68
2022/05/15 06:46:16;;;;;;;1.93;0.80;;;22.40;95.90;;;;;;5071743;28;20182;-68
2022/05/15 06:48:42;;;;;;;1.97;1.00;;;21.40;95.90;;;;;;5072057;28;20637;-68
2022/05/15 06:51:07;;;;;;;1.40;1.30;;;21.30;95.90;;;;;;5072058;28;20254;-68
2022/05/15 06:53:34;;;;;;;2.03;1.03;;;21.20;95.30;;;;;;5072247;28;20166;-68
2022/05/15 06:58:44;;;;;;;2.53;1.27;;;20.60;97.40;;;;;;5072118;28;20411;-68
2022/05/15 07:01:10;;;;;;;1.77;1.20;;;20.70;97.00;;;;;;5071545;28;20498;-68
2022/05/15 07:03:35;;;;;;;2.50;1.40;;;20.20;97.20;;;;;;5071862;28;20185;-68
2022/05/15 07:06:01;;;;;;;2.40;1.00;;;20.50;97.20;;;;;;5071979;28;20513;-68
2022/05/15 07:08:27;;;;;;;3.43;1.40;;;19.80;97.50;;;;;;5071951;28;20196;-68
2022/05/15 07:10:53;;;;;;;1.60;1.40;;;20.80;96.10;;;;;;5072017;28;20995;-69
2022/05/15 07:13:19;;;;;;;2.70;0.90;;;21.60;95.90;;;;;;5071533;28;20178;-69
2022/05/15 07:15:44;;;;;;;1.50;1.13;;;21.10;96.10;;;;;;5071137;28;20276;-67
2022/05/15 07:18:10;;;;;;;2.00;0.80;;;20.70;95.90;;;;;;5071981;28;20222;-70
2022/05/15 07:20:36;;;;;;;1.37;0.90;;;22.20;94.50;;;;;;5071912;28;20177;-68
2022/05/15 07:23:02;;;;;;;1.10;0.83;;;21.80;92.00;;;;;;5071843;28;20543;-66
2022/05/15 07:25:28;;;;;;;1.67;1.00;;;21.20;94.80;;;;;;5071351;28;20467;-68
2022/05/15 07:27:54;;;;;;;1.70;1.13;;;22.30;93.30;;;;;;5071472;28;20403;-68
2022/05/15 07:30:20;;;;;;;3.97;0.97;;;21.10;92.80;;;;;;5071673;28;20404;-68
2022/05/15 07:32:45;;;;;;;1.67;0.90;;;22.50;92.10;;;;;;5071687;28;20539;-69
2022/05/15 07:35:11;;;;;;;2.13;1.43;;;22.80;90.90;;;;;;5071268;28;20198;-68
2022/05/15 07:37:36;;;;;;;1.67;0.87;;;21.70;92.80;;;;;;5071459;28;20170;-67
2022/05/15 07:40:02;;;;;;;1.63;1.13;;;20.80;94.20;;;;;;5071632;28;20172;-68
2022/05/15 07:42:27;;;;;;;1.33;1.20;;;20.90;93.80;;;;;;5053043;28;20219;-68
2022/05/15 07:44:57;;;;;;;2.33;1.30;;;19.90;94.40;;;;;;5071163;28;20295;-68
2022/05/15 07:47:23;;;;;;;1.30;1.20;;;21.80;93.70;;;;;;5071454;28;20170;-68
2022/05/15 07:49:49;;;;;;;1.90;1.07;;;23.30;91.10;;;;;;5071170;28;20404;-69
2022/05/15 07:52:14;;;;;;;2.80;1.10;;;21.50;92.10;;;;;;5070980;28;20470;-68
2022/05/15 07:54:40;;;;;;;2.37;1.20;;;21.10;93.00;;;;;;5071056;28;20165;-68
2022/05/15 07:57:06;;;;;;;0.90;0.70;;;20.90;94.60;;;;;;5071608;28;20258;-68
2022/05/15 07:59:31;;;;;;;1.00;0.90;;;22.60;91.10;;;;;;5071230;28;20174;-67
2022/05/15 08:01:59;;;;;;;1.83;1.10;;;23.40;91.20;;;;;;5071902;28;20554;-67
2022/05/15 08:04:25;;;;;;;1.20;0.83;;;22.70;92.30;;;;;;5071326;28;20236;-67
2022/05/15 08:09:34;;;;;;;1.37;1.20;;;23.30;87.30;;;;;;5071553;28;20571;-67
2022/05/15 08:12:00;;;;;;;1.67;0.80;;;23.00;88.40;;;;;;5071269;28;20401;-68
2022/05/15 08:14:28;;;;;;;1.30;1.00;;;22.80;90.20;;;;;;5072285;28;20167;-68
2022/05/15 08:16:53;;;;;;;0.97;0.80;;;23.00;85.50;;;;;;5075055;28;20189;-68
2022/05/15 08:24:48;;;;;;;2.00;1.60;;;21.90;87.90;;;;;;5073494;28;20474;-68
2022/05/15 08:27:14;;;;;;;1.17;1.00;;;23.20;86.30;;;;;;5075202;28;20424;-69
2022/05/15 08:29:40;;;;;;;1.43;0.87;;;22.50;84.30;;;;;;5075978;28;20404;-68
2022/05/15 08:32:06;;;;;;;1.40;1.00;;;22.80;86.90;;;;;;5074514;28;20173;-67
2022/05/15 08:34:33;;;;;;;1.30;0.83;;;23.90;84.60;;;;;;5074305;28;20400;-67
2022/05/15 08:37:00;;;;;;;0.77;0.70;;;24.40;79.10;;;;;;5074227;28;20439;-67
2022/05/15 08:39:27;;;;;;;3.10;1.30;;;23.90;81.50;;;;;;5074665;28;20440;-67
2022/05/15 08:42:12;;;;;;;0.93;0.70;;;22.00;80.30;;;;;;5074203;28;20408;-68
2022/05/15 08:44:43;;;;;;;2.03;1.10;;;22.70;80.50;;;;;;5074108;28;20448;-69
2022/05/15 08:47:18;;;;;;;1.37;1.10;;;21.80;81.80;;;;;;5073995;28;20528;-68
2022/05/15 08:49:53;;;;;;;1.30;0.87;;;21.80;86.60;;;;;;5074427;28;20400;-68
2022/05/15 08:52:41;;;;;;;2.20;1.90;;;22.80;83.20;;;;;;5073998;28;20394;-68
2022/05/15 08:55:21;;;;;;;1.87;0.90;;;22.50;78.50;;;;;;5073850;28;20815;-67
2022/05/15 08:57:55;;;;;;;1.20;0.70;;;22.10;81.60;;;;;;5074471;28;20423;-67
2022/05/15 09:00:43;;;;;;;1.80;1.07;;;22.90;83.30;;;;;;5073971;28;20456;-66
2022/05/15 09:03:17;;;;;;;1.40;0.90;;;22.90;83.10;;;;;;5073811;28;20450;-69
2022/05/15 09:05:57;;;;;;;2.13;0.93;;;23.70;81.90;;;;;;5073633;28;20456;-69
2022/05/15 09:08:46;;;;;;;1.10;0.73;;;22.60;84.20;;;;;;5073758;28;20400;-68
2022/05/15 09:11:14;;;;;;;3.77;1.10;;;24.30;81.60;;;;;;5073931;28;20401;-68
2022/05/15 09:13:47;;;;;;;1.13;0.97;;;22.40;82.30;;;;;;5074250;28;20484;-68
2022/05/15 09:16:22;;;;;;;2.57;0.80;;;21.00;84.90;;;;;;5073446;28;20416;-70
2022/05/15 09:18:47;;;;;;;1.83;0.90;;;22.80;82.90;;;;;;5073678;28;20483;-68
2022/05/15 09:21:16;;;;;;;1.17;0.77;;;22.90;79.40;;;;;;5074007;28;20488;-69
2022/05/15 09:23:46;;;;;;;0.90;0.70;;;21.80;83.80;;;;;;5073493;28;20170;-69
2022/05/15 09:26:28;;;;;;;1.50;0.80;;;23.60;79.40;;;;;;5073398;28;20432;-69
2022/05/15 09:29:01;;;;;;;1.10;0.70;;;22.60;81.60;;;;;;5073484;28;20400;-70
2022/05/15 09:31:28;;;;;;;1.47;0.80;;;22.10;74.80;;;;;;5073867;28;20922;-68
2022/05/15 09:33:58;;;;;;;2.20;1.00;;;22.20;80.50;;;;;;5073662;28;20732;-68
2022/05/15 09:36:33;;;;;;;1.40;0.80;;;23.30;77.20;;;;;;5073577;28;20922;-68
2022/05/15 09:39:41;;;;;;;0.80;0.60;;;23.70;74.10;;;;;;5072889;28;20921;-68
2022/05/15 09:45:25;;;;;;;1.13;0.80;;;24.00;70.70;;;;;;5011337;28;20450;-69
2022/05/15 09:47:51;;;;;;;1.47;0.90;;;23.10;72.40;;;;;;5063958;28;20413;-68
2022/05/15 09:50:40;;;;;;;0.63;0.60;;;23.70;71.90;;;;;;5073205;28;20392;-70
2022/05/15 09:53:18;;;;;;;1.57;1.00;;;23.60;71.40;;;;;;5072961;28;20174;-69
2022/05/15 09:55:58;;;;;;;1.03;0.80;;;22.00;73.00;;;;;;5072660;28;20455;-69
2022/05/15 09:58:24;;;;;;;2.00;1.20;;;23.20;72.60;;;;;;5073211;28;20416;-72
2022/05/15 10:00:49;;;;;;;1.10;0.80;;;22.20;77.20;;;;;;5072969;28;20919;-69
2022/05/15 10:03:24;;;;;;;1.00;0.80;;;22.70;73.40;;;;;;5072762;28;20170;-70
2022/05/15 10:05:58;;;;;;;1.77;0.90;;;22.80;72.30;;;;;;5072569;28;20220;-70
2022/05/15 10:08:26;;;;;;;1.20;0.90;;;22.10;70.60;;;;;;5072540;28;20497;-70
2022/05/15 10:11:04;;;;;;;1.30;0.90;;;22.20;73.30;;;;;;5072915;28;20865;-70
2022/05/15 10:13:40;;;;;;;0.77;0.77;;;22.40;72.30;;;;;;5072582;28;20486;-68
2022/05/15 10:16:23;;;;;;;1.00;0.90;;;22.10;70.60;;;;;;5072472;28;20426;-67
2022/05/15 10:19:05;;;;;;;1.50;0.90;;;20.80;71.20;;;;;;5072565;28;20928;-68
2022/05/15 10:21:55;;;;;;;0.80;0.70;;;20.70;73.30;;;;;;5072614;28;20480;-68
2022/05/15 10:24:34;;;;;;;1.13;0.87;;;21.10;72.70;;;;;;5072268;28;21060;-68
2022/05/15 10:27:12;;;;;;;2.50;0.80;;;21.10;71.60;;;;;;5072170;28;20902;-69
2022/05/15 10:29:49;;;;;;;0.70;0.70;;;21.00;72.30;;;;;;5072208;28;20449;-69
2022/05/15 10:32:21;;;;;;;0.70;0.70;;;20.20;72.00;;;;;;5072071;28;20445;-70
2022/05/15 10:34:46;;;;;;;0.80;0.70;;;20.10;74.70;;;;;;5072006;28;20896;-69
2022/05/15 10:37:12;;;;;;;1.83;0.90;;;20.00;75.50;;;;;;5072249;28;20426;-69
2022/05/15 10:40:03;;;;;;;1.20;1.10;;;20.70;73.60;;;;;;5072023;28;20183;-68
2022/05/15 10:42:43;;;;;;;0.80;0.80;;;20.50;72.20;;;;;;5072204;28;20197;-68
2022/05/15 10:45:15;;;;;;;1.13;0.90;;;19.90;70.10;;;;;;5071791;28;20770;-68
2022/05/15 10:48:14;;;;;;;1.43;1.33;;;20.00;70.70;;;;;;5071940;28;20420;-67
2022/05/15 10:50:55;;;;;;;0.80;0.70;;;20.20;69.70;;;;;;5071584;28;20746;-68
2022/05/15 10:59:53;;;;;;;0.60;0.60;;;20.10;72.10;;;;;;5071633;28;20403;-68
2022/05/15 11:02:49;;;;;;;1.00;0.80;;;20.50;71.40;;;;;;5071670;28;20450;-67
2022/05/15 11:05:28;;;;;;;1.30;0.87;;;20.20;70.00;;;;;;5071466;28;20819;-68
2022/05/15 11:08:25;;;;;;;0.90;0.70;;;20.50;72.20;;;;;;5071759;28;20704;-67
2022/05/15 11:11:16;;;;;;;0.73;0.73;;;20.20;70.50;;;;;;5071478;28;20439;-68
2022/05/15 11:13:47;;;;;;;0.80;0.80;;;20.30;70.10;;;;;;5042763;28;20414;-68
2022/05/15 11:16:30;;;;;;;0.70;0.70;;;20.30;70.30;;;;;;5071231;28;20424;-67
2022/05/15 11:19:03;;;;;;;1.00;0.80;;;20.10;70.20;;;;;;5071536;28;20875;-67
2022/05/15 11:22:01;;;;;;;0.73;0.70;;;20.10;70.00;;;;;;5071320;28;20462;-68
2022/05/15 11:24:44;;;;;;;0.80;0.70;;;20.40;70.50;;;;;;5071373;28;20831;-68
2022/05/15 11:27:30;;;;;;;2.30;1.40;;;20.60;73.00;;;;;;5071339;28;20451;-68
2022/05/15 11:30:01;;;;;;;0.97;0.90;;;20.50;68.70;;;;;;5071544;28;20401;-66
2022/05/15 11:32:31;;;;;;;1.60;0.93;;;20.40;71.90;;;;;;5071361;28;20399;-67
2022/05/15 11:34:59;;;;;;;1.00;0.80;;;20.50;70.90;;;;;;5071209;28;20413;-68
2022/05/15 11:37:58;;;;;;;1.27;0.90;;;20.70;68.60;;;;;;5071313;28;20490;-68
2022/05/15 11:40:42;;;;;;;2.03;0.80;;;20.50;69.20;;;;;;5071291;28;20407;-67
2022/05/15 11:43:26;;;;;;;1.00;0.90;;;20.50;70.10;;;;;;5071401;28;20968;-68
2022/05/15 11:46:03;;;;;;;1.00;0.90;;;20.60;69.40;;;;;;5070996;28;20456;-67
2022/05/15 11:48:43;;;;;;;1.13;0.97;;;20.40;68.40;;;;;;5071228;28;20413;-67
2022/05/15 11:51:14;;;;;;;1.00;0.80;;;20.40;67.80;;;;;;5071515;28;20417;-67
2022/05/15 11:54:02;;;;;;;1.53;0.70;;;20.70;70.90;;;;;;5071591;28;20491;-66
2022/05/15 11:56:28;;;;;;;0.90;0.80;;;20.90;69.10;;;;;;5070940;28;20539;-66
2022/05/15 11:59:03;;;;;;;1.63;1.10;;;20.80;69.30;;;;;;5071011;28;20483;-68
2022/05/15 12:01:35;;;;;;;1.17;0.93;;;20.70;69.20;;;;;;5071184;28;20157;-66
2022/05/15 12:04:19;;;;;;;1.10;0.73;;;20.80;69.80;;;;;;5075020;28;20496;-67
2022/05/15 12:06:56;;;;;;;1.03;0.93;;;20.90;70.40;;;;;;5074973;28;20435;-67
2022/05/15 12:09:22;;;;;;;0.80;0.80;;;20.90;70.10;;;;;;5074852;28;20871;-67
2022/05/15 12:11:50;;;;;;;0.73;0.73;;;20.80;69.70;;;;;;5074781;28;20451;-67
2022/05/15 12:14:29;;;;;;;1.77;0.67;;;20.70;69.50;;;;;;5074871;28;20413;-66
2022/05/15 12:17:27;;;;;;;1.00;0.80;;;20.80;70.10;;;;;;5074746;28;20438;-67
2022/05/15 12:20:03;;;;;;;0.70;0.70;;;20.90;68.20;;;;;;5074755;28;20496;-67
2022/05/15 12:22:37;;;;;;;1.40;0.70;;;20.70;69.00;;;;;;5074731;28;20455;-68
2022/05/15 12:25:10;;;;;;;0.90;0.80;;;20.50;70.00;;;;;;5074779;28;20454;-68
2022/05/15 12:30:47;;;;;;;1.03;0.83;;;21.10;67.80;;;;;;5075101;28;20391;-68
2022/05/15 12:33:13;;;;;;;1.03;0.93;;;21.20;67.50;;;;;;5074452;28;20773;-68
2022/05/15 12:35:41;;;;;;;3.23;1.00;;;21.10;66.90;;;;;;5074256;28;20441;-67
2022/05/15 12:38:13;;;;;;;1.27;0.90;;;20.60;67.60;;;;;;5074208;28;20409;-68
2022/05/15 12:41:03;;;;;;;1.33;0.97;;;20.40;67.30;;;;;;5074380;28;20439;-68
2022/05/15 12:43:40;;;;;;;1.00;0.90;;;20.40;68.10;;;;;;5066924;28;20546;-68
2022/05/15 12:46:09;;;;;;;1.10;1.00;;;20.50;68.80;;;;;;5073963;28;20461;-67
2022/05/15 12:48:37;;;;;;;0.80;0.80;;;20.80;68.70;;;;;;5074167;28;20417;-68
2022/05/15 12:51:07;;;;;;;1.00;0.90;;;20.80;69.50;;;;;;5074041;28;20447;-69
2022/05/15 12:53:52;;;;;;;2.80;0.80;;;21.00;68.80;;;;;;5074834;28;20410;-68
2022/05/15 12:56:31;;;;;;;0.73;0.73;;;21.10;68.90;;;;;;5073864;28;20530;-67
2022/05/15 12:59:15;;;;;;;0.80;0.70;;;21.00;68.30;;;;;;5073911;28;20495;-68
2022/05/15 13:01:42;;;;;;;3.63;0.90;;;21.30;67.60;;;;;;5074030;28;20431;-68
2022/05/15 13:04:23;;;;;;;3.53;1.20;;;21.30;68.00;;;;;;5073725;28;20414;-68
2022/05/15 13:06:50;;;;;;;2.13;1.00;;;21.20;68.00;;;;;;5073804;28;20184;-68
2022/05/15 13:09:25;;;;;;;1.10;0.93;;;21.10;67.30;;;;;;5073815;28;20404;-68
2022/05/15 13:11:54;;;;;;;2.03;1.10;;;21.20;67.80;;;;;;5073629;28;20405;-68
2022/05/15 13:14:25;;;;;;;0.70;0.70;;;21.30;68.40;;;;;;5072950;28;20412;-67
2022/05/15 13:16:52;;;;;;;1.43;1.00;;;21.20;66.20;;;;;;5073860;28;20420;-68
2022/05/15 13:19:24;;;;;;;1.27;0.90;;;21.00;67.30;;;;;;5073602;28;20941;-67
2022/05/15 13:21:53;;;;;;;0.73;0.70;;;21.20;68.40;;;;;;5073783;28;20460;-67
2022/05/15 13:24:19;;;;;;;0.80;0.80;;;21.00;67.60;;;;;;5073197;28;20468;-66
2022/05/15 13:26:47;;;;;;;1.20;0.90;;;20.80;67.40;;;;;;5073357;28;20430;-68
2022/05/15 13:29:18;;;;;;;0.80;0.80;;;20.90;67.30;;;;;;5073732;28;20473;-67